Time;durP1;ratioP1;P1;durP2;ratioP2;P2;SDS_P1;SDS_P2;PMS_P1;PMS_P2;Temp;Humidity;BMP_temperature;BMP_pressure;BME280_temperature;BME280_humidity;BME280_pressure;Samples;Min_cycle;Max_cycle;Signal;HPM_P1;HPM_P2
2022/11/29 00:01:24;;;;;;;19.33;11.80;;;5.00;99.90;;;3.41;100.00;100587.84;4861534;29;20061;-76
2022/11/29 00:03:50;;;;;;;21.13;12.10;;;5.00;99.90;;;3.44;100.00;100582.09;4870439;29;20173;-76
2022/11/29 00:06:20;;;;;;;19.63;11.18;;;5.00;99.90;;;3.44;100.00;100577.56;4871543;29;20039;-76
2022/11/29 00:08:47;;;;;;;20.85;11.88;;;5.00;99.90;;;3.41;100.00;100577.06;4870476;29;20041;-76
2022/11/29 00:14:09;;;;;;;20.95;11.98;;;5.10;99.90;;;3.49;100.00;100579.75;4875171;29;20049;-76
2022/11/29 00:16:35;;;;;;;19.25;11.35;;;5.10;99.90;;;3.52;100.00;100579.41;4874467;29;20100;-76
2022/11/29 00:19:02;;;;;;;18.70;12.23;;;5.10;99.90;;;3.52;100.00;100576.72;4874953;29;20409;-76
2022/11/29 00:21:28;;;;;;;17.55;11.30;;;5.10;99.90;;;3.49;100.00;100579.75;4873374;29;20065;-75
2022/11/29 00:23:54;;;;;;;19.85;11.40;;;5.10;99.90;;;3.41;100.00;100577.06;4866342;29;20048;-76
2022/11/29 00:26:20;;;;;;;22.88;11.55;;;5.10;99.90;;;3.40;100.00;100578.94;4874164;29;20041;-76
2022/11/29 00:28:46;;;;;;;17.65;11.45;;;5.10;99.90;;;3.39;100.00;100579.09;4882333;29;20404;-76
2022/11/29 00:31:29;;;;;;;18.70;11.57;;;5.00;99.90;;;3.35;100.00;100584.00;4873949;29;20045;-76
2022/11/29 00:33:56;;;;;;;21.23;11.43;;;5.00;99.90;;;3.39;100.00;100587.19;4874571;29;20037;-77
2022/11/29 00:36:24;;;;;;;18.10;10.90;;;5.00;99.90;;;3.33;100.00;100574.38;4858793;29;20037;-78
2022/11/29 00:38:49;;;;;;;19.63;10.90;;;5.00;99.90;;;3.42;100.00;100582.28;4874701;29;20072;-76
2022/11/29 00:41:15;;;;;;;17.83;10.77;;;5.00;99.90;;;3.47;100.00;100587.19;4874525;29;20120;-76
2022/11/29 00:43:41;;;;;;;23.42;11.52;;;5.10;99.90;;;3.47;100.00;100587.19;4871676;29;20421;-76
2022/11/29 00:46:08;;;;;;;21.58;11.40;;;5.10;99.90;;;3.50;100.00;100583.28;4874417;29;20052;-76
2022/11/29 00:48:34;;;;;;;18.63;11.38;;;5.10;99.90;;;3.50;100.00;100580.59;4875225;29;20032;-76
2022/11/29 00:51:00;;;;;;;18.42;11.80;;;5.10;99.90;;;3.48;100.00;100586.16;4872458;29;20495;-76
2022/11/29 00:53:27;;;;;;;17.88;10.82;;;5.10;99.90;;;3.43;100.00;100575.88;4874554;29;20072;-76
2022/11/29 00:55:53;;;;;;;17.48;10.60;;;5.10;99.90;;;3.47;100.00;100579.09;4872716;29;20051;-75
2022/11/29 00:58:19;;;;;;;19.52;11.30;;;5.10;99.90;;;3.45;100.00;100575.72;4873259;29;20037;-76
2022/11/29 01:00:46;;;;;;;18.52;10.68;;;5.10;99.90;;;3.43;100.00;100575.03;4874406;29;20069;-76
2022/11/29 01:03:14;;;;;;;24.00;11.27;;;5.10;99.90;;;3.44;100.00;100580.28;4874008;29;20496;-76
2022/11/29 01:05:41;;;;;;;18.70;11.38;;;5.10;99.90;;;3.46;100.00;100577.41;4872311;29;20060;-76
2022/11/29 01:08:09;;;;;;;18.55;11.45;;;5.10;99.90;;;3.43;100.00;100581.28;4868836;29;20037;-76
2022/11/29 01:10:35;;;;;;;20.67;11.68;;;5.10;99.90;;;3.45;100.00;100575.72;4873234;29;20369;-76
2022/11/29 01:13:00;;;;;;;19.73;11.63;;;5.10;99.90;;;3.42;100.00;100582.28;4873518;29;20096;-76
2022/11/29 01:15:27;;;;;;;18.65;10.93;;;5.10;99.90;;;3.42;100.00;100578.75;4874172;29;20089;-75
2022/11/29 01:17:53;;;;;;;17.17;10.63;;;5.10;99.90;;;3.42;100.00;100578.75;4872976;29;20037;-76
2022/11/29 01:20:19;;;;;;;18.42;11.18;;;5.10;99.90;;;3.40;100.00;100589.72;4873082;29;20096;-76
2022/11/29 01:22:45;;;;;;;16.27;10.02;;;5.10;99.90;;;3.42;100.00;100584.13;4871196;29;20116;-76
2022/11/29 01:25:13;;;;;;;19.40;10.68;;;5.00;99.90;;;3.45;100.00;100590.03;4873318;29;20474;-76
2022/11/29 01:27:38;;;;;;;19.83;11.50;;;5.10;99.90;;;3.43;100.00;100591.22;4873267;29;20064;-76
2022/11/29 01:30:07;;;;;;;20.38;10.93;;;5.10;99.90;;;3.46;100.00;100601.69;4870368;29;20064;-76
2022/11/29 01:32:33;;;;;;;17.08;9.95;;;5.10;99.90;;;3.44;100.00;100595.59;4874415;29;20359;-76
2022/11/29 01:34:59;;;;;;;16.83;10.85;;;5.00;99.90;;;3.43;100.00;100592.06;4873807;29;20051;-76
2022/11/29 01:37:26;;;;;;;18.38;10.75;;;5.10;99.90;;;3.41;100.00;100590.53;4873612;29;20501;-76
2022/11/29 01:39:52;;;;;;;17.98;10.55;;;5.10;99.90;;;3.43;100.00;100596.59;4874267;29;20044;-76
2022/11/29 01:42:18;;;;;;;18.85;10.68;;;5.10;99.90;;;3.44;100.00;100601.00;4871501;29;20029;-76
2022/11/29 01:44:43;;;;;;;18.85;11.02;;;5.10;99.90;;;3.45;100.00;100606.22;4873581;29;20225;-76
2022/11/29 01:47:11;;;;;;;19.45;11.02;;;5.10;99.90;;;3.46;100.00;100601.69;4874297;29;20049;-76
2022/11/29 01:49:42;;;;;;;15.63;9.60;;;5.10;99.90;;;3.46;100.00;100604.38;4872282;29;20029;-76
2022/11/29 01:52:30;;;;;;;16.80;10.02;;;5.10;99.90;;;3.49;100.00;100609.44;4871288;29;20049;-76
2022/11/29 01:55:02;;;;;;;17.80;9.93;;;5.10;99.90;;;3.48;100.00;100605.06;4872689;29;20044;-76
2022/11/29 01:57:30;;;;;;;17.02;10.18;;;5.10;99.90;;;3.48;100.00;100606.91;4870989;29;20033;-76
2022/11/29 02:00:08;;;;;;;19.50;11.95;;;5.10;99.90;;;3.44;100.00;100595.59;4873201;29;20025;-76
2022/11/29 02:02:45;;;;;;;18.33;9.50;;;5.10;99.90;;;3.46;100.00;100599.00;4873044;29;20119;-77
2022/11/29 02:05:15;;;;;;;14.55;9.70;;;5.10;99.90;;;3.44;100.00;100601.00;4862160;29;20084;-77
2022/11/29 02:07:47;;;;;;;18.75;11.57;;;5.10;99.90;;;3.41;100.00;100604.88;4873656;29;20535;-77
2022/11/29 02:10:15;;;;;;;19.77;10.77;;;5.00;99.90;;;3.39;100.00;100603.34;4872572;29;20033;-77
2022/11/29 02:13:12;;;;;;;19.73;10.45;;;5.00;99.90;;;3.30;100.00;100597.97;4873890;29;20112;-77
2022/11/29 02:16:13;;;;;;;17.58;10.05;;;4.90;99.90;;;3.21;100.00;100598.16;4870931;29;20044;-76
2022/11/29 02:19:09;;;;;;;19.83;10.60;;;4.80;99.90;;;3.16;100.00;100599.50;4861758;29;20049;-77
2022/11/29 02:22:06;;;;;;;17.75;9.82;;;4.80;99.90;;;3.07;100.00;100602.38;4869422;29;20025;-76
2022/11/29 02:25:10;;;;;;;17.02;10.57;;;4.70;99.90;;;2.94;100.00;100602.88;4870201;29;20064;-77
2022/11/29 02:28:05;;;;;;;17.33;10.43;;;4.60;99.90;;;2.86;100.00;100607.25;4867274;29;20045;-76
2022/11/29 02:31:04;;;;;;;18.50;10.30;;;4.50;99.90;;;2.85;100.00;100604.72;4873589;29;20033;-76
2022/11/29 02:34:12;;;;;;;19.17;10.90;;;4.50;99.90;;;2.76;100.00;100594.94;4870641;29;20040;-77
2022/11/29 02:37:03;;;;;;;18.17;10.90;;;4.40;99.90;;;2.69;100.00;100598.31;4872655;29;20052;-77
2022/11/29 02:40:38;;;;;;;16.20;10.25;;;4.30;99.90;;;2.70;100.00;100610.78;4872227;29;20044;-76
2022/11/29 02:43:15;;;;;;;20.60;10.82;;;4.30;99.90;;;2.68;100.00;100609.25;4872535;29;20044;-76
2022/11/29 02:46:22;;;;;;;19.15;10.57;;;4.30;99.90;;;2.64;100.00;100597.94;4872514;29;20105;-76
2022/11/29 02:49:06;;;;;;;18.70;11.05;;;4.30;99.90;;;2.73;100.00;100602.38;4867954;29;20036;-76
2022/11/29 02:51:44;;;;;;;20.40;11.13;;;4.30;99.90;;;2.73;100.00;100604.19;4865782;29;20377;-77
2022/11/29 02:54:26;;;;;;;16.10;9.85;;;4.40;99.90;;;2.77;100.00;100610.09;4871916;29;20037;-77
2022/11/29 02:57:24;;;;;;;19.27;11.52;;;4.40;99.90;;;2.80;100.00;100618.72;4866435;29;20052;-76
2022/11/29 03:00:12;;;;;;;16.98;11.23;;;4.40;99.90;;;2.83;100.00;100618.38;4870123;29;20089;-77
2022/11/29 03:02:50;;;;;;;18.50;10.85;;;4.40;99.90;;;2.85;100.00;100615.50;4870897;29;20025;-76
2022/11/29 03:05:20;;;;;;;21.02;10.90;;;4.40;99.90;;;2.80;100.00;100617.84;4871290;29;20556;-76
2022/11/29 03:08:36;;;;;;;19.58;11.98;;;4.40;99.90;;;2.83;100.00;100620.22;4869985;29;20120;-77
2022/11/29 03:11:39;;;;;;;17.15;10.73;;;4.40;99.90;;;2.86;100.00;100627.97;4865463;29;20173;-76
2022/11/29 03:14:31;;;;;;;18.60;11.48;;;4.50;99.90;;;2.85;100.00;100624.44;4868609;29;20144;-76
2022/11/29 03:17:39;;;;;;;17.70;11.10;;;4.50;99.90;;;2.88;100.00;100631.34;4870985;29;20120;-77
2022/11/29 03:21:03;;;;;;;20.08;11.27;;;4.50;99.90;;;2.87;100.00;100629.66;4868794;29;20499;-76
2022/11/29 03:23:45;;;;;;;21.15;10.82;;;4.50;99.90;;;2.88;100.00;100631.34;4870221;29;20819;-76
2022/11/29 03:26:23;;;;;;;16.50;10.23;;;4.50;99.90;;;2.87;100.00;100626.94;4867349;29;20044;-76
2022/11/29 03:29:20;;;;;;;17.88;11.13;;;4.50;99.90;;;2.84;100.00;100622.75;4872227;29;20044;-76
2022/11/29 03:32:19;;;;;;;15.40;9.93;;;4.50;99.90;;;2.83;100.00;100629.16;4870392;29;20529;-77
2022/11/29 03:34:51;;;;;;;19.00;11.33;;;4.50;99.90;;;2.81;100.00;100633.88;4870443;29;20071;-76
2022/11/29 03:37:27;;;;;;;19.13;11.07;;;4.40;99.90;;;2.80;100.00;100636.72;4872017;29;20072;-76
2022/11/29 03:40:04;;;;;;;17.02;9.88;;;4.40;99.90;;;2.79;100.00;100626.94;4870089;29;20037;-76
2022/11/29 03:42:40;;;;;;;17.05;10.57;;;4.40;99.90;;;2.77;100.00;100645.97;4870823;29;20037;-77
2022/11/29 03:45:22;;;;;;;16.58;9.98;;;4.40;99.90;;;2.76;100.00;100643.44;4872161;29;20044;-76
2022/11/29 03:47:58;;;;;;;16.73;10.77;;;4.40;99.90;;;2.72;100.00;100646.47;4873550;29;20040;-77
2022/11/29 03:50:37;;;;;;;18.40;10.25;;;4.30;99.90;;;2.69;100.00;100646.81;4876377;29;20047;-76
2022/11/29 03:53:34;;;;;;;16.10;10.05;;;4.30;99.90;;;2.66;100.00;100649.84;4875480;29;20032;-76
2022/11/29 03:56:20;;;;;;;20.02;11.05;;;4.30;99.90;;;2.68;100.00;100655.03;4869628;29;20037;-76
2022/11/29 03:59:00;;;;;;;18.52;11.13;;;4.30;99.90;;;2.72;100.00;100664.47;4875210;29;20061;-76
2022/11/29 04:01:51;;;;;;;17.92;10.75;;;4.30;99.90;;;2.74;100.00;100667.84;4862128;29;20469;-77
2022/11/29 04:05:02;;;;;;;18.75;10.55;;;4.30;99.90;;;2.73;100.00;100661.63;4871426;29;20033;-76
2022/11/29 04:07:34;;;;;;;21.75;11.98;;;4.30;99.90;;;2.77;100.00;100670.22;4872343;29;20048;-77
2022/11/29 04:10:47;;;;;;;19.33;11.63;;;4.30;99.90;;;2.82;100.00;100673.28;4871378;29;20036;-77
2022/11/29 04:13:28;;;;;;;16.15;10.40;;;4.40;99.90;;;2.74;100.00;100667.84;4871729;29;20104;-77
2022/11/29 04:16:33;;;;;;;20.33;10.85;;;4.40;99.90;;;2.65;100.00;100675.09;4875299;29;20509;-76
2022/11/29 04:19:33;;;;;;;17.33;10.90;;;4.30;99.90;;;2.61;100.00;100668.31;4863318;29;20037;-77
2022/11/29 04:22:42;;;;;;;19.77;11.20;;;4.30;99.90;;;2.61;100.00;100675.56;4873457;29;20037;-76
2022/11/29 04:25:45;;;;;;;19.08;11.02;;;4.20;99.90;;;2.59;100.00;100678.41;4875083;29;20045;-76
2022/11/29 04:28:32;;;;;;;19.15;11.38;;;4.20;99.90;;;2.61;100.00;100679.09;4869552;29;20033;-77
2022/11/29 04:31:06;;;;;;;18.02;11.43;;;4.20;99.90;;;2.62;100.00;100675.41;4873885;29;20041;-77
2022/11/29 04:34:19;;;;;;;18.55;11.45;;;4.30;99.90;;;2.63;100.00;100681.66;4873758;29;20088;-76
2022/11/29 04:37:31;;;;;;;17.95;11.07;;;4.30;99.90;;;2.65;100.00;100679.63;4873705;29;20028;-76
2022/11/29 04:40:22;;;;;;;20.85;11.80;;;4.30;99.90;;;2.67;100.00;100683.00;4873894;29;20037;-75
2022/11/29 04:43:40;;;;;;;18.05;11.07;;;4.30;99.90;;;2.68;100.00;100677.47;4872512;29;20052;-77
2022/11/29 04:46:21;;;;;;;18.00;10.90;;;4.30;99.90;;;2.69;100.00;100680.97;4871433;29;20056;-78
2022/11/29 04:49:06;;;;;;;21.73;12.73;;;4.30;99.90;;;2.68;100.00;100682.84;4870571;29;20044;-77
2022/11/29 04:52:12;;;;;;;21.00;12.32;;;4.40;99.90;;;2.75;100.00;100693.78;4873518;29;20028;-77
2022/11/29 04:55:13;;;;;;;18.17;11.35;;;4.40;99.90;;;2.73;100.00;100699.34;4873814;29;20087;-77
2022/11/29 04:57:54;;;;;;;20.27;11.40;;;4.40;99.90;;;2.80;100.00;100704.09;4866276;29;20056;-78
2022/11/29 05:00:23;;;;;;;20.15;11.27;;;4.40;99.90;;;2.81;100.00;100695.84;4866336;29;20025;-77
2022/11/29 05:03:00;;;;;;;20.73;11.77;;;4.40;99.90;;;2.81;100.00;100700.38;4873713;29;20062;-77
2022/11/29 05:05:50;;;;;;;18.75;11.15;;;4.50;99.90;;;2.85;100.00;100702.59;4874406;29;20056;-78
2022/11/29 05:08:44;;;;;;;19.60;11.13;;;4.50;99.90;;;2.87;100.00;100711.34;4871960;29;20043;-77
2022/11/29 05:11:49;;;;;;;20.65;11.93;;;4.50;99.90;;;2.90;100.00;100712.84;4872604;29;20127;-77
2022/11/29 05:14:58;;;;;;;18.45;11.75;;;4.50;99.90;;;2.91;100.00;100708.31;4874493;29;20108;-77
2022/11/29 05:17:56;;;;;;;19.05;12.02;;;4.50;99.90;;;2.96;100.00;100717.59;4869997;29;20053;-77
2022/11/29 05:20:59;;;;;;;19.38;11.95;;;4.60;99.90;;;3.00;100.00;100718.09;4865071;29;20032;-77
2022/11/29 05:24:05;;;;;;;18.63;11.05;;;4.60;99.90;;;3.02;100.00;100719.63;4872213;29;20033;-77
2022/11/29 05:27:15;;;;;;;22.00;12.48;;;4.60;99.90;;;3.06;100.00;100719.31;4873877;29;20037;-77
2022/11/29 05:29:50;;;;;;;19.38;11.32;;;4.70;99.90;;;3.04;100.00;100724.03;4875210;29;20040;-77
2022/11/29 05:32:35;;;;;;;20.48;12.40;;;4.70;99.90;;;3.10;100.00;100734.13;4873702;29;20060;-78
2022/11/29 05:35:43;;;;;;;20.55;11.77;;;4.70;99.90;;;3.13;100.00;100736.50;4872629;29;20033;-77
2022/11/29 05:38:43;;;;;;;20.02;11.70;;;4.70;99.90;;;3.14;100.00;100739.03;4872561;29;20100;-77
2022/11/29 05:41:54;;;;;;;21.02;12.25;;;4.80;99.90;;;3.16;100.00;100741.56;4873424;29;20555;-77
2022/11/29 05:44:40;;;;;;;21.42;11.73;;;4.80;99.90;;;3.19;100.00;100751.19;4870878;29;20556;-77
2022/11/29 05:47:09;;;;;;;20.88;12.38;;;4.80;99.90;;;3.20;100.00;100752.88;4868793;29;20156;-77
2022/11/29 05:50:13;;;;;;;18.08;11.40;;;4.80;99.90;;;3.16;100.00;100746.94;4871898;29;20041;-77
2022/11/29 05:53:28;;;;;;;24.55;12.57;;;4.80;99.90;;;3.26;100.00;100763.84;4873043;29;20044;-77
2022/11/29 05:56:22;;;;;;;21.75;12.52;;;4.80;99.90;;;3.31;100.00;100764.19;4874411;29;20045;-77
2022/11/29 05:59:11;;;;;;;22.85;12.32;;;4.90;99.90;;;3.28;100.00;100764.50;4871876;29;20040;-77
2022/11/29 06:02:14;;;;;;;18.43;11.23;;;4.90;99.90;;;3.29;100.00;100773.44;4873001;29;20025;-77
2022/11/29 06:04:58;;;;;;;17.83;10.98;;;4.90;99.90;;;3.30;100.00;100780.50;4868522;29;20069;-77
2022/11/29 06:08:05;;;;;;;20.30;12.20;;;4.90;99.90;;;3.33;100.00;100779.34;4866849;29;20053;-77
2022/11/29 06:10:50;;;;;;;21.60;11.63;;;4.90;99.90;;;3.30;100.00;100770.59;4868512;29;20048;-77
2022/11/29 06:14:07;;;;;;;20.80;12.32;;;4.90;99.90;;;3.34;100.00;100775.63;4868883;29;20040;-79
2022/11/29 06:16:55;;;;;;;21.25;12.20;;;4.90;99.90;;;3.36;100.00;100787.09;4840915;29;20056;-77
2022/11/29 06:19:39;;;;;;;23.23;12.38;;;4.90;99.90;;;3.33;100.00;100782.91;4869486;29;20048;-77
2022/11/29 06:22:50;;;;;;;21.02;11.93;;;5.00;99.90;;;3.37;100.00;100786.09;4867999;29;20045;-79
2022/11/29 06:25:29;;;;;;;22.65;12.98;;;5.00;99.90;;;3.37;100.00;100794.19;4868112;29;20456;-79
2022/11/29 06:28:22;;;;;;;21.02;12.80;;;5.00;99.90;;;3.41;100.00;100790.13;4871324;29;20029;-79
2022/11/29 06:31:13;;;;;;;20.13;12.32;;;5.00;99.90;;;3.41;100.00;100788.31;4873179;29;20079;-78
2022/11/29 06:33:47;;;;;;;23.08;12.45;;;5.00;99.90;;;3.42;100.00;100791.81;4870204;29;20071;-79
2022/11/29 06:36:27;;;;;;;22.98;12.35;;;5.00;99.90;;;3.39;100.00;100790.31;4872426;29;20112;-76
2022/11/29 06:38:53;;;;;;;21.25;12.32;;;5.00;99.90;;;3.41;100.00;100788.31;4867220;29;20055;-76
2022/11/29 06:41:22;;;;;;;22.33;12.27;;;5.00;99.90;;;3.44;100.00;100797.91;4872314;29;20049;-78
2022/11/29 06:43:49;;;;;;;19.75;12.23;;;5.10;99.90;;;3.41;100.00;100790.13;4871709;29;20045;-78
2022/11/29 06:46:44;;;;;;;22.83;12.98;;;5.10;99.90;;;3.42;100.00;100794.53;4873287;29;20056;-78
2022/11/29 06:49:34;;;;;;;23.25;13.27;;;5.10;99.90;;;3.46;100.00;100798.59;4871618;29;20517;-77
2022/11/29 06:52:19;;;;;;;22.80;13.05;;;5.10;99.90;;;3.48;100.00;100804.66;4871838;29;20425;-77
2022/11/29 06:55:12;;;;;;;21.48;12.45;;;5.10;99.90;;;3.47;100.00;100802.97;4868249;29;20052;-76
2022/11/29 06:58:06;;;;;;;24.17;13.20;;;5.10;99.90;;;3.41;100.00;100788.31;4870479;29;20511;-77
2022/11/29 07:00:47;;;;;;;20.92;11.77;;;5.10;99.90;;;3.52;100.00;100805.16;4869971;29;20094;-78
2022/11/29 07:03:55;;;;;;;20.27;12.48;;;5.10;99.90;;;3.48;100.00;100807.38;4866253;29;20037;-77
2022/11/29 07:06:27;;;;;;;23.63;12.68;;;5.10;99.90;;;3.52;100.00;100818.66;4871742;29;20029;-78
2022/11/29 07:09:00;;;;;;;23.17;12.75;;;5.10;99.90;;;3.48;100.00;100815.47;4872593;29;20041;-77
2022/11/29 07:11:27;;;;;;;22.40;12.98;;;5.10;99.90;;;3.53;100.00;100823.03;4872961;29;20049;-78
2022/11/29 07:13:53;;;;;;;21.80;12.20;;;5.10;99.90;;;3.54;100.00;100825.59;4871033;29;20029;-76
2022/11/29 07:16:40;;;;;;;21.13;12.40;;;5.10;99.90;;;3.54;100.00;100830.13;4871589;29;20070;-77
2022/11/29 07:19:27;;;;;;;21.15;12.77;;;5.10;99.90;;;3.54;100.00;100836.38;4871845;29;20120;-76
2022/11/29 07:22:18;;;;;;;22.42;12.63;;;5.20;99.90;;;3.54;100.00;100833.69;4873389;29;20060;-76
2022/11/29 07:25:35;;;;;;;21.73;12.57;;;5.10;99.90;;;3.54;100.00;100824.72;4873151;29;20033;-77
2022/11/29 07:28:31;;;;;;;22.77;13.20;;;5.20;99.90;;;3.60;100.00;100838.41;4874031;29;20037;-76
2022/11/29 07:31:22;;;;;;;22.85;13.35;;;5.20;99.90;;;3.64;100.00;100838.91;4872852;29;20044;-77
2022/11/29 07:34:13;;;;;;;21.65;13.45;;;5.20;99.90;;;3.63;100.00;100834.53;4871887;29;20445;-77
2022/11/29 07:37:20;;;;;;;22.58;12.55;;;5.30;99.90;;;3.68;100.00;100842.13;4875307;29;20037;-77
2022/11/29 07:40:13;;;;;;;23.75;13.68;;;5.30;99.90;;;3.72;100.00;100846.19;4874036;29;20068;-77
2022/11/29 07:43:24;;;;;;;22.45;13.48;;;5.30;99.90;;;3.74;100.00;100846.88;4875216;29;20044;-77
2022/11/29 07:45:50;;;;;;;20.63;11.98;;;5.30;99.90;;;3.81;100.00;100852.41;4864987;29;20057;-79
2022/11/29 07:48:17;;;;;;;23.85;13.43;;;5.40;99.90;;;3.82;100.00;100846.88;4874723;29;20033;-80
2022/11/29 07:50:43;;;;;;;24.13;13.68;;;5.40;99.90;;;3.89;100.00;100849.75;4874173;29;20040;-79
2022/11/29 07:53:21;;;;;;;20.77;13.07;;;5.50;99.90;;;3.88;100.00;100851.59;4890245;29;20077;-79
2022/11/29 07:55:48;;;;;;;25.42;13.55;;;5.50;99.90;;;3.94;100.00;100851.91;4875359;29;20037;-79
2022/11/29 07:58:16;;;;;;;19.63;12.35;;;5.50;99.90;;;3.95;100.00;100848.22;4875976;29;20032;-78
2022/11/29 08:00:43;;;;;;;;;;;5.60;99.90;;;4.02;100.00;100868.16;4870235;29;20033;-78
2022/11/29 08:03:09;;;;;;;21.48;12.23;;;5.60;99.90;;;4.03;100.00;100867.97;4874343;29;19916;-77
2022/11/29 08:05:43;;;;;;;21.40;12.30;;;5.70;99.90;;;4.07;100.00;100871.19;4875583;29;20048;-79
2022/11/29 08:08:09;;;;;;;19.92;12.85;;;5.70;99.90;;;4.12;100.00;100882.31;4872419;29;20063;-75
2022/11/29 08:10:35;;;;;;;24.08;13.32;;;5.70;99.90;;;4.14;100.00;100882.16;4874082;29;20515;-74
2022/11/29 08:13:00;;;;;;;22.48;12.98;;;5.70;99.90;;;4.16;100.00;100888.22;4873846;29;20029;-74
2022/11/29 08:15:26;;;;;;;24.25;13.93;;;5.70;99.90;;;4.13;100.00;100888.56;4871913;29;20061;-76
2022/11/29 08:17:52;;;;;;;24.25;14.27;;;5.80;99.90;;;4.15;100.00;100890.06;4875193;29;20676;-74
2022/11/29 08:20:18;;;;;;;23.02;12.85;;;5.70;99.90;;;4.17;100.00;100896.16;4874852;29;20698;-76
2022/11/29 08:22:44;;;;;;;25.35;14.40;;;5.80;99.90;;;4.12;100.00;100878.78;4873489;29;20033;-75
2022/11/29 08:25:11;;;;;;;23.95;14.60;;;5.80;99.90;;;4.16;100.00;100886.34;4876150;29;20036;-75
2022/11/29 08:27:38;;;;;;;24.65;14.95;;;5.80;99.90;;;4.21;100.00;100888.56;4872416;29;20465;-76
2022/11/29 08:30:05;;;;;;;23.80;13.75;;;5.80;99.90;;;4.25;100.00;100891.78;4874203;29;20045;-76
2022/11/29 08:32:32;;;;;;;23.25;14.02;;;5.80;99.90;;;4.21;100.00;100887.69;4874055;29;20048;-76
2022/11/29 08:34:58;;;;;;;24.97;14.20;;;5.80;99.90;;;4.24;100.00;100888.22;4872419;29;20045;-76
2022/11/29 08:37:24;;;;;;;22.60;13.35;;;5.80;99.90;;;4.31;100.00;100900.03;4874760;29;20032;-76
2022/11/29 08:39:50;;;;;;;21.73;13.43;;;5.90;99.90;;;4.25;100.00;100889.06;4873801;29;20396;-75
2022/11/29 08:42:16;;;;;;;23.45;14.18;;;5.90;99.90;;;4.26;100.00;100896.16;4873922;29;20029;-76
2022/11/29 08:44:41;;;;;;;22.55;14.45;;;5.90;99.90;;;4.25;100.00;100898.00;4874102;29;20468;-76
2022/11/29 08:50:00;;;;;;;28.10;15.70;;;5.90;99.90;;;4.31;100.00;100910.00;4873356;29;20392;-77
2022/11/29 08:55:18;;;;;;;27.52;15.38;;;5.90;99.90;;;4.28;100.00;100913.88;4871306;29;20043;-75
2022/11/29 08:57:45;;;;;;;;;;;5.90;99.90;;;4.26;100.00;100915.06;4874531;29;20089;-77
2022/11/29 09:00:12;;;;;;;26.88;15.75;;;5.90;99.90;;;4.24;100.00;100917.06;4875144;29;20006;-77
2022/11/29 09:02:38;;;;;;;26.40;15.45;;;5.80;99.90;;;4.25;100.00;100921.50;4874368;29;20029;-77
2022/11/29 09:05:07;;;;;;;26.90;15.73;;;5.80;99.90;;;4.26;100.00;100915.06;4874694;29;20064;-76
2022/11/29 09:07:33;;;;;;;27.08;16.00;;;5.90;99.90;;;4.25;100.00;100925.03;4873861;29;20496;-77
2022/11/29 09:10:04;;;;;;;32.13;17.10;;;5.80;99.90;;;4.27;100.00;100927.56;4872441;29;20120;-78
2022/11/29 09:12:35;;;;;;;30.10;16.92;;;5.90;99.90;;;4.23;100.00;100924.34;4874312;29;20587;-78
2022/11/29 09:15:07;;;;;;;28.13;16.63;;;5.80;99.90;;;4.25;100.00;100925.03;4872945;29;20159;-76
2022/11/29 09:17:33;;;;;;;26.45;16.02;;;5.80;99.90;;;4.27;100.00;100922.16;4868403;29;20047;-76
2022/11/29 09:20:00;;;;;;;30.80;16.85;;;5.80;99.90;;;4.28;100.00;100927.38;4873480;29;20033;-79
2022/11/29 09:22:26;;;;;;;27.08;16.00;;;5.90;99.90;;;4.31;100.00;100929.75;4874333;29;20508;-79
2022/11/29 09:24:51;;;;;;;30.40;16.80;;;5.90;99.90;;;4.31;100.00;100929.75;4873319;29;20061;-77
2022/11/29 09:27:17;;;;;;;28.35;18.38;;;5.90;99.90;;;4.26;100.00;100932.09;4873556;29;20033;-77
2022/11/29 09:29:43;;;;;;;28.67;17.13;;;5.90;99.90;;;4.25;100.00;100926.91;4871464;29;20062;-78
2022/11/29 09:32:09;;;;;;;29.60;17.27;;;5.90;99.90;;;4.32;100.00;100933.31;4872961;29;20035;-77
2022/11/29 09:34:35;;;;;;;29.35;16.75;;;5.90;99.90;;;4.29;100.00;100936.34;4873408;29;20132;-77
2022/11/29 09:37:01;;;;;;;32.67;18.70;;;5.90;99.90;;;4.26;100.00;100936.69;4873530;29;20112;-76
2022/11/29 09:39:27;;;;;;;31.08;18.30;;;5.90;99.90;;;4.28;100.00;100938.19;4872542;29;20040;-76
2022/11/29 09:42:18;;;;;;;32.40;18.88;;;5.90;99.90;;;4.35;100.00;100943.75;4872650;29;20037;-75
2022/11/29 09:45:00;;;;;;;34.83;19.15;;;6.00;99.90;;;4.35;100.00;100951.88;4872654;29;20136;-77
2022/11/29 09:47:51;;;;;;;31.30;18.67;;;6.00;99.90;;;4.39;100.00;100953.22;4871464;29;20076;-77
2022/11/29 09:50:32;;;;;;;30.92;17.95;;;6.00;99.90;;;4.43;100.00;100962.66;4871290;29;20029;-77
2022/11/29 09:53:27;;;;;;;32.53;18.38;;;6.00;99.90;;;4.45;100.00;100957.09;4873240;29;20052;-77
2022/11/29 09:56:15;;;;;;;27.02;17.58;;;6.10;99.90;;;4.47;100.00;100969.41;4873135;29;20448;-77
2022/11/29 09:58:54;;;;;;;34.25;18.77;;;6.10;99.90;;;4.44;100.00;100966.22;4869923;29;20461;-77
2022/11/29 10:01:28;;;;;;;30.27;17.42;;;6.00;99.90;;;4.40;100.00;100960.31;4873431;29;20477;-77
2022/11/29 10:04:02;;;;;;;34.63;20.33;;;6.00;99.90;;;4.34;100.00;100954.72;4869857;29;20085;-77
2022/11/29 10:06:37;;;;;;;36.22;20.05;;;6.00;99.90;;;4.25;100.00;100953.91;4875641;29;20543;-77
2022/11/29 10:09:19;;;;;;;33.80;18.60;;;5.90;99.90;;;4.24;100.00;100949.47;4869449;29;20400;-77
2022/11/29 10:12:24;;;;;;;34.03;20.23;;;5.90;99.90;;;4.38;100.00;100956.09;4871900;29;20056;-76
2022/11/29 10:14:53;;;;;;;39.28;19.60;;;6.00;99.90;;;4.53;100.00;100958.97;4867369;29;20124;-76
2022/11/29 10:17:33;;;;;;;37.58;19.98;;;6.10;99.90;;;4.68;100.00;100962.66;4872391;29;20141;-76
2022/11/29 10:20:16;;;;;;;35.08;20.02;;;6.30;99.90;;;4.82;100.00;100960.31;4868955;29;20068;-76
2022/11/29 10:22:54;;;;;;;33.33;18.95;;;6.40;99.90;;;4.91;100.00;100951.16;4874557;29;20499;-77
2022/11/29 10:25:30;;;;;;;34.67;18.85;;;6.50;99.90;;;5.08;100.00;100961.94;4873662;29;20033;-78
2022/11/29 10:27:57;;;;;;;32.40;17.95;;;6.60;99.90;;;5.16;100.00;100964.63;4874068;29;20033;-78
2022/11/29 10:30:23;;;;;;;29.13;17.10;;;6.70;99.90;;;5.28;100.00;100956.97;4873336;29;20040;-78
2022/11/29 10:32:59;;;;;;;34.97;19.08;;;6.80;99.90;;;5.40;100.00;100962.84;4874540;29;20033;-77
2022/11/29 10:35:25;;;;;;;31.88;18.02;;;7.00;99.90;;;5.53;100.00;100965.00;4868838;29;20061;-79
2022/11/29 10:37:57;;;;;;;32.83;19.00;;;7.10;99.90;;;5.69;100.00;100969.50;4874104;29;20481;-79
2022/11/29 10:40:33;;;;;;;29.20;16.45;;;7.30;99.90;;;5.86;100.00;100970.25;4873802;29;20084;-79
2022/11/29 10:43:00;;;;;;;30.95;17.42;;;7.40;99.90;;;5.91;100.00;100975.97;4884479;29;20472;-79
2022/11/29 10:45:49;;;;;;;28.23;17.20;;;7.50;99.90;;;5.86;100.00;100959.41;4855962;29;20049;-78
2022/11/29 10:48:27;;;;;;;30.95;18.17;;;7.50;99.90;;;5.95;100.00;100974.59;4870349;29;20028;-78
2022/11/29 10:50:53;;;;;;;28.15;17.55;;;7.50;99.90;;;6.03;100.00;100971.03;4873607;29;20087;-78
2022/11/29 10:53:25;;;;;;;31.60;18.90;;;7.60;99.90;;;6.14;100.00;100965.22;4873631;29;20049;-78
2022/11/29 10:56:13;;;;;;;29.20;18.80;;;7.80;99.90;;;6.38;100.00;100973.34;4873647;29;20084;-77
2022/11/29 10:59:06;;;;;;;30.80;18.30;;;7.90;99.90;;;6.47;100.00;100966.81;4872770;29;20468;-77
2022/11/29 11:01:43;;;;;;;28.67;17.67;;;8.00;99.90;;;6.30;100.00;100971.53;4855695;29;20304;-79
2022/11/29 11:04:27;;;;;;;30.80;17.67;;;8.00;99.90;;;6.35;100.00;100971.00;4873551;29;20033;-78
2022/11/29 11:07:01;;;;;;;30.98;17.65;;;8.00;99.90;;;6.30;100.00;100983.22;4872519;29;20056;-78
2022/11/29 11:10:16;;;;;;;30.83;18.77;;;8.00;99.90;;;6.30;100.00;100979.66;4871437;29;20136;-77
2022/11/29 11:13:06;;;;;;;27.65;16.98;;;7.90;99.90;;;6.22;100.00;100979.72;4843956;29;20545;-78